sensor_id;sensor_type;location;lat;lon;timestamp;P1;durP1;ratioP1;P2;durP2;ratioP2
12214;SDS011;6170;42.206;24.142;2023-05-07T00:00:59;13.63;;;9.23;;
12214;SDS011;6170;42.206;24.142;2023-05-07T00:03:26;11.75;;;7.88;;
12214;SDS011;6170;42.206;24.142;2023-05-07T00:05:53;10.90;;;7.88;;
12214;SDS011;6170;42.206;24.142;2023-05-07T00:08:20;12.65;;;7.88;;
12214;SDS011;6170;42.206;24.142;2023-05-07T00:10:47;10.38;;;7.20;;
12214;SDS011;6170;42.206;24.142;2023-05-07T00:13:15;12.13;;;6.88;;
12214;SDS011;6170;42.206;24.142;2023-05-07T00:15:42;10.40;;;6.88;;
12214;SDS011;6170;42.206;24.142;2023-05-07T00:18:09;9.50;;;6.43;;
12214;SDS011;6170;42.206;24.142;2023-05-07T00:20:36;10.55;;;7.20;;
12214;SDS011;6170;42.206;24.142;2023-05-07T00:23:04;10.68;;;6.72;;
12214;SDS011;6170;42.206;24.142;2023-05-07T00:25:31;8.00;;;6.43;;
12214;SDS011;6170;42.206;24.142;2023-05-07T00:27:58;10.13;;;6.72;;
12214;SDS011;6170;42.206;24.142;2023-05-07T00:30:30;8.90;;;6.57;;
12214;SDS011;6170;42.206;24.142;2023-05-07T00:32:57;11.73;;;6.05;;
12214;SDS011;6170;42.206;24.142;2023-05-07T00:35:24;8.50;;;6.40;;
12214;SDS011;6170;42.206;24.142;2023-05-07T00:37:51;9.13;;;7.38;;
12214;SDS011;6170;42.206;24.142;2023-05-07T00:40:18;12.60;;;7.10;;
12214;SDS011;6170;42.206;24.142;2023-05-07T00:42:45;9.02;;;6.88;;
12214;SDS011;6170;42.206;24.142;2023-05-07T00:45:14;11.77;;;7.15;;
12214;SDS011;6170;42.206;24.142;2023-05-07T00:47:43;11.60;;;7.38;;
12214;SDS011;6170;42.206;24.142;2023-05-07T00:50:10;9.10;;;7.35;;
12214;SDS011;6170;42.206;24.142;2023-05-07T00:52:37;10.35;;;7.18;;
12214;SDS011;6170;42.206;24.142;2023-05-07T00:55:06;12.63;;;7.47;;
12214;SDS011;6170;42.206;24.142;2023-05-07T00:57:34;11.18;;;7.65;;
12214;SDS011;6170;42.206;24.142;2023-05-07T01:00:03;10.73;;;7.85;;
12214;SDS011;6170;42.206;24.142;2023-05-07T01:02:32;11.07;;;8.15;;
12214;SDS011;6170;42.206;24.142;2023-05-07T01:05:01;9.07;;;7.72;;
12214;SDS011;6170;42.206;24.142;2023-05-07T01:07:29;12.82;;;7.80;;
12214;SDS011;6170;42.206;24.142;2023-05-07T01:09:56;9.77;;;7.72;;
12214;SDS011;6170;42.206;24.142;2023-05-07T01:12:24;12.00;;;7.65;;
12214;SDS011;6170;42.206;24.142;2023-05-07T01:14:52;10.73;;;7.32;;
12214;SDS011;6170;42.206;24.142;2023-05-07T01:17:20;9.18;;;6.85;;
12214;SDS011;6170;42.206;24.142;2023-05-07T01:19:47;12.55;;;8.13;;
12214;SDS011;6170;42.206;24.142;2023-05-07T01:22:16;10.77;;;7.22;;
12214;SDS011;6170;42.206;24.142;2023-05-07T01:24:55;12.05;;;7.93;;
12214;SDS011;6170;42.206;24.142;2023-05-07T01:27:24;9.63;;;7.32;;
12214;SDS011;6170;42.206;24.142;2023-05-07T01:29:51;13.55;;;8.15;;
12214;SDS011;6170;42.206;24.142;2023-05-07T01:32:19;10.98;;;8.55;;
12214;SDS011;6170;42.206;24.142;2023-05-07T01:34:50;10.70;;;8.00;;
12214;SDS011;6170;42.206;24.142;2023-05-07T01:37:19;13.95;;;8.60;;
12214;SDS011;6170;42.206;24.142;2023-05-07T01:39:48;14.30;;;7.90;;
12214;SDS011;6170;42.206;24.142;2023-05-07T01:42:15;12.63;;;8.35;;
12214;SDS011;6170;42.206;24.142;2023-05-07T01:44:42;11.73;;;8.38;;
12214;SDS011;6170;42.206;24.142;2023-05-07T01:47:10;17.15;;;8.27;;
12214;SDS011;6170;42.206;24.142;2023-05-07T01:49:38;12.55;;;8.27;;
12214;SDS011;6170;42.206;24.142;2023-05-07T01:52:05;15.10;;;8.75;;
12214;SDS011;6170;42.206;24.142;2023-05-07T01:54:33;15.48;;;9.48;;
12214;SDS011;6170;42.206;24.142;2023-05-07T01:57:01;14.43;;;9.07;;
12214;SDS011;6170;42.206;24.142;2023-05-07T01:59:28;9.85;;;8.15;;
12214;SDS011;6170;42.206;24.142;2023-05-07T02:01:55;17.23;;;8.15;;
12214;SDS011;6170;42.206;24.142;2023-05-07T02:04:22;13.35;;;8.23;;
12214;SDS011;6170;42.206;24.142;2023-05-07T02:06:49;11.65;;;8.70;;
12214;SDS011;6170;42.206;24.142;2023-05-07T02:09:17;11.00;;;8.80;;
12214;SDS011;6170;42.206;24.142;2023-05-07T02:11:45;13.02;;;8.07;;
12214;SDS011;6170;42.206;24.142;2023-05-07T02:14:13;14.98;;;8.60;;
12214;SDS011;6170;42.206;24.142;2023-05-07T02:16:40;12.05;;;8.60;;
12214;SDS011;6170;42.206;24.142;2023-05-07T02:19:07;15.93;;;8.57;;
12214;SDS011;6170;42.206;24.142;2023-05-07T02:21:34;13.05;;;8.43;;
12214;SDS011;6170;42.206;24.142;2023-05-07T02:24:01;12.05;;;8.35;;
12214;SDS011;6170;42.206;24.142;2023-05-07T02:26:28;11.38;;;8.35;;
12214;SDS011;6170;42.206;24.142;2023-05-07T02:28:56;11.00;;;8.65;;
12214;SDS011;6170;42.206;24.142;2023-05-07T02:31:24;15.45;;;7.85;;
12214;SDS011;6170;42.206;24.142;2023-05-07T02:33:51;14.63;;;8.93;;
12214;SDS011;6170;42.206;24.142;2023-05-07T02:36:18;12.57;;;8.95;;
12214;SDS011;6170;42.206;24.142;2023-05-07T02:38:45;12.73;;;8.15;;
12214;SDS011;6170;42.206;24.142;2023-05-07T02:41:12;9.98;;;7.75;;
12214;SDS011;6170;42.206;24.142;2023-05-07T02:43:40;9.57;;;8.20;;
12214;SDS011;6170;42.206;24.142;2023-05-07T02:46:07;13.65;;;7.70;;
12214;SDS011;6170;42.206;24.142;2023-05-07T02:48:36;12.68;;;8.32;;
12214;SDS011;6170;42.206;24.142;2023-05-07T02:51:03;10.32;;;7.55;;
12214;SDS011;6170;42.206;24.142;2023-05-07T02:53:31;9.88;;;8.07;;
12214;SDS011;6170;42.206;24.142;2023-05-07T02:55:59;15.80;;;8.43;;
12214;SDS011;6170;42.206;24.142;2023-05-07T02:58:27;13.40;;;8.45;;
12214;SDS011;6170;42.206;24.142;2023-05-07T03:00:54;12.45;;;8.60;;
12214;SDS011;6170;42.206;24.142;2023-05-07T03:03:21;12.00;;;8.45;;
12214;SDS011;6170;42.206;24.142;2023-05-07T03:05:49;9.77;;;7.88;;
12214;SDS011;6170;42.206;24.142;2023-05-07T03:08:16;11.05;;;8.50;;
12214;SDS011;6170;42.206;24.142;2023-05-07T03:10:43;12.52;;;8.18;;
12214;SDS011;6170;42.206;24.142;2023-05-07T03:13:10;12.38;;;9.18;;
12214;SDS011;6170;42.206;24.142;2023-05-07T03:15:37;12.13;;;8.68;;
12214;SDS011;6170;42.206;24.142;2023-05-07T03:18:04;17.75;;;9.30;;
12214;SDS011;6170;42.206;24.142;2023-05-07T03:20:31;12.48;;;9.32;;
12214;SDS011;6170;42.206;24.142;2023-05-07T03:23:00;12.35;;;9.40;;
12214;SDS011;6170;42.206;24.142;2023-05-07T03:25:27;11.55;;;9.40;;
12214;SDS011;6170;42.206;24.142;2023-05-07T03:27:55;14.05;;;9.85;;
12214;SDS011;6170;42.206;24.142;2023-05-07T03:30:22;13.25;;;9.52;;
12214;SDS011;6170;42.206;24.142;2023-05-07T03:32:49;12.38;;;9.85;;
12214;SDS011;6170;42.206;24.142;2023-05-07T03:35:16;15.60;;;9.80;;
12214;SDS011;6170;42.206;24.142;2023-05-07T03:37:43;15.25;;;10.18;;
12214;SDS011;6170;42.206;24.142;2023-05-07T03:40:11;17.88;;;11.23;;
12214;SDS011;6170;42.206;24.142;2023-05-07T03:42:38;16.23;;;10.60;;
12214;SDS011;6170;42.206;24.142;2023-05-07T03:45:06;19.70;;;10.52;;
12214;SDS011;6170;42.206;24.142;2023-05-07T03:47:33;15.98;;;10.88;;
12214;SDS011;6170;42.206;24.142;2023-05-07T03:50:00;12.27;;;10.48;;
12214;SDS011;6170;42.206;24.142;2023-05-07T03:52:27;16.75;;;11.32;;
12214;SDS011;6170;42.206;24.142;2023-05-07T03:54:54;14.93;;;10.98;;
12214;SDS011;6170;42.206;24.142;2023-05-07T03:57:23;16.98;;;11.13;;
12214;SDS011;6170;42.206;24.142;2023-05-07T03:59:49;13.18;;;9.93;;
12214;SDS011;6170;42.206;24.142;2023-05-07T04:02:16;14.35;;;10.45;;
12214;SDS011;6170;42.206;24.142;2023-05-07T04:04:43;13.68;;;9.90;;
12214;SDS011;6170;42.206;24.142;2023-05-07T04:07:10;14.27;;;10.27;;
12214;SDS011;6170;42.206;24.142;2023-05-07T04:09:37;11.88;;;9.98;;
12214;SDS011;6170;42.206;24.142;2023-05-07T04:12:04;14.88;;;10.07;;
12214;SDS011;6170;42.206;24.142;2023-05-07T04:14:32;13.30;;;9.07;;
12214;SDS011;6170;42.206;24.142;2023-05-07T04:17:00;13.88;;;9.98;;
12214;SDS011;6170;42.206;24.142;2023-05-07T04:19:27;11.50;;;8.65;;
12214;SDS011;6170;42.206;24.142;2023-05-07T04:21:54;14.00;;;9.02;;
12214;SDS011;6170;42.206;24.142;2023-05-07T04:24:21;17.27;;;8.57;;
12214;SDS011;6170;42.206;24.142;2023-05-07T04:26:48;12.32;;;8.88;;
12214;SDS011;6170;42.206;24.142;2023-05-07T04:29:16;13.50;;;8.60;;
12214;SDS011;6170;42.206;24.142;2023-05-07T04:31:44;12.40;;;8.07;;
12214;SDS011;6170;42.206;24.142;2023-05-07T04:34:11;12.65;;;8.75;;
12214;SDS011;6170;42.206;24.142;2023-05-07T04:36:39;11.07;;;8.18;;
12214;SDS011;6170;42.206;24.142;2023-05-07T04:39:06;11.02;;;8.73;;
12214;SDS011;6170;42.206;24.142;2023-05-07T04:41:35;12.80;;;8.75;;
12214;SDS011;6170;42.206;24.142;2023-05-07T04:44:02;12.48;;;9.13;;
12214;SDS011;6170;42.206;24.142;2023-05-07T04:46:31;12.93;;;8.77;;
12214;SDS011;6170;42.206;24.142;2023-05-07T04:48:59;9.82;;;8.55;;
12214;SDS011;6170;42.206;24.142;2023-05-07T04:51:26;10.57;;;8.70;;
12214;SDS011;6170;42.206;24.142;2023-05-07T04:53:53;11.75;;;8.40;;
12214;SDS011;6170;42.206;24.142;2023-05-07T04:56:20;10.40;;;8.32;;
12214;SDS011;6170;42.206;24.142;2023-05-07T04:58:47;11.15;;;8.52;;
12214;SDS011;6170;42.206;24.142;2023-05-07T05:01:14;16.17;;;9.00;;
12214;SDS011;6170;42.206;24.142;2023-05-07T05:03:41;12.30;;;11.02;;
12214;SDS011;6170;42.206;24.142;2023-05-07T05:06:09;10.73;;;9.27;;
12214;SDS011;6170;42.206;24.142;2023-05-07T05:08:36;10.23;;;8.68;;
12214;SDS011;6170;42.206;24.142;2023-05-07T05:11:03;11.25;;;8.40;;
12214;SDS011;6170;42.206;24.142;2023-05-07T05:13:30;10.98;;;8.27;;
12214;SDS011;6170;42.206;24.142;2023-05-07T05:15:57;9.88;;;7.50;;
12214;SDS011;6170;42.206;24.142;2023-05-07T05:18:24;9.35;;;8.45;;
12214;SDS011;6170;42.206;24.142;2023-05-07T05:20:51;11.68;;;7.90;;
12214;SDS011;6170;42.206;24.142;2023-05-07T05:23:19;11.60;;;8.13;;
12214;SDS011;6170;42.206;24.142;2023-05-07T05:25:46;13.85;;;8.48;;
12214;SDS011;6170;42.206;24.142;2023-05-07T05:28:13;9.10;;;7.85;;
12214;SDS011;6170;42.206;24.142;2023-05-07T05:30:40;8.07;;;7.28;;
12214;SDS011;6170;42.206;24.142;2023-05-07T05:33:07;9.63;;;8.23;;
12214;SDS011;6170;42.206;24.142;2023-05-07T05:35:34;10.30;;;7.57;;
12214;SDS011;6170;42.206;24.142;2023-05-07T05:38:01;10.52;;;7.57;;
12214;SDS011;6170;42.206;24.142;2023-05-07T05:40:30;9.80;;;8.05;;
12214;SDS011;6170;42.206;24.142;2023-05-07T05:42:57;9.98;;;7.80;;
12214;SDS011;6170;42.206;24.142;2023-05-07T05:45:24;9.10;;;7.97;;
12214;SDS011;6170;42.206;24.142;2023-05-07T05:47:51;10.55;;;8.07;;
12214;SDS011;6170;42.206;24.142;2023-05-07T05:50:18;10.35;;;7.93;;
12214;SDS011;6170;42.206;24.142;2023-05-07T05:52:45;10.93;;;7.57;;
12214;SDS011;6170;42.206;24.142;2023-05-07T05:55:12;13.73;;;7.82;;
12214;SDS011;6170;42.206;24.142;2023-05-07T05:57:40;9.05;;;7.30;;
12214;SDS011;6170;42.206;24.142;2023-05-07T06:00:08;9.57;;;6.88;;
12214;SDS011;6170;42.206;24.142;2023-05-07T06:02:36;7.38;;;6.47;;
12214;SDS011;6170;42.206;24.142;2023-05-07T06:05:03;11.93;;;6.75;;
12214;SDS011;6170;42.206;24.142;2023-05-07T06:07:30;11.45;;;6.65;;
12214;SDS011;6170;42.206;24.142;2023-05-07T06:09:57;7.88;;;6.78;;
12214;SDS011;6170;42.206;24.142;2023-05-07T06:12:24;11.25;;;6.75;;
12214;SDS011;6170;42.206;24.142;2023-05-07T06:14:52;10.82;;;6.32;;
12214;SDS011;6170;42.206;24.142;2023-05-07T06:17:19;7.95;;;5.05;;
12214;SDS011;6170;42.206;24.142;2023-05-07T06:19:46;8.27;;;6.30;;
12214;SDS011;6170;42.206;24.142;2023-05-07T06:22:13;7.13;;;5.18;;
12214;SDS011;6170;42.206;24.142;2023-05-07T06:24:40;9.00;;;5.18;;
12214;SDS011;6170;42.206;24.142;2023-05-07T06:27:07;6.70;;;5.10;;
12214;SDS011;6170;42.206;24.142;2023-05-07T06:29:34;9.07;;;6.00;;
12214;SDS011;6170;42.206;24.142;2023-05-07T06:32:09;8.35;;;5.68;;
12214;SDS011;6170;42.206;24.142;2023-05-07T06:34:36;7.05;;;5.80;;
12214;SDS011;6170;42.206;24.142;2023-05-07T06:37:03;8.35;;;6.10;;
12214;SDS011;6170;42.206;24.142;2023-05-07T06:39:30;8.65;;;5.10;;
12214;SDS011;6170;42.206;24.142;2023-05-07T06:41:57;8.20;;;5.63;;
12214;SDS011;6170;42.206;24.142;2023-05-07T06:44:24;8.93;;;5.65;;
12214;SDS011;6170;42.206;24.142;2023-05-07T06:46:51;7.43;;;5.80;;
12214;SDS011;6170;42.206;24.142;2023-05-07T06:49:19;10.98;;;6.00;;
12214;SDS011;6170;42.206;24.142;2023-05-07T06:51:46;8.70;;;6.57;;
12214;SDS011;6170;42.206;24.142;2023-05-07T06:54:13;10.02;;;6.20;;
12214;SDS011;6170;42.206;24.142;2023-05-07T06:56:40;7.40;;;6.57;;
12214;SDS011;6170;42.206;24.142;2023-05-07T06:59:07;9.18;;;6.28;;
12214;SDS011;6170;42.206;24.142;2023-05-07T07:01:34;8.32;;;5.95;;
12214;SDS011;6170;42.206;24.142;2023-05-07T07:04:01;9.25;;;6.35;;
12214;SDS011;6170;42.206;24.142;2023-05-07T07:06:30;6.63;;;5.20;;
12214;SDS011;6170;42.206;24.142;2023-05-07T07:08:57;11.80;;;5.88;;
12214;SDS011;6170;42.206;24.142;2023-05-07T07:11:24;10.23;;;6.22;;
12214;SDS011;6170;42.206;24.142;2023-05-07T07:13:51;9.07;;;6.43;;
12214;SDS011;6170;42.206;24.142;2023-05-07T07:16:19;9.68;;;6.22;;
12214;SDS011;6170;42.206;24.142;2023-05-07T07:18:46;8.30;;;5.70;;
12214;SDS011;6170;42.206;24.142;2023-05-07T07:21:13;7.22;;;6.07;;
12214;SDS011;6170;42.206;24.142;2023-05-07T07:23:41;10.77;;;5.95;;
12214;SDS011;6170;42.206;24.142;2023-05-07T07:26:08;6.00;;;5.40;;
12214;SDS011;6170;42.206;24.142;2023-05-07T07:28:41;6.20;;;5.07;;
12214;SDS011;6170;42.206;24.142;2023-05-07T07:31:08;6.55;;;5.10;;
12214;SDS011;6170;42.206;24.142;2023-05-07T07:33:36;12.15;;;4.85;;
12214;SDS011;6170;42.206;24.142;2023-05-07T07:36:03;6.38;;;4.90;;
12214;SDS011;6170;42.206;24.142;2023-05-07T07:38:32;7.10;;;4.80;;
12214;SDS011;6170;42.206;24.142;2023-05-07T07:41:00;13.18;;;4.95;;
12214;SDS011;6170;42.206;24.142;2023-05-07T07:43:27;9.32;;;5.25;;
12214;SDS011;6170;42.206;24.142;2023-05-07T07:45:54;7.22;;;5.32;;
12214;SDS011;6170;42.206;24.142;2023-05-07T07:48:21;8.50;;;5.63;;
12214;SDS011;6170;42.206;24.142;2023-05-07T07:50:48;5.60;;;5.10;;
12214;SDS011;6170;42.206;24.142;2023-05-07T07:53:16;8.57;;;5.13;;
12214;SDS011;6170;42.206;24.142;2023-05-07T07:55:43;7.38;;;4.85;;
12214;SDS011;6170;42.206;24.142;2023-05-07T07:58:12;6.07;;;5.32;;
12214;SDS011;6170;42.206;24.142;2023-05-07T08:00:39;7.07;;;5.53;;
12214;SDS011;6170;42.206;24.142;2023-05-07T08:03:06;9.80;;;5.47;;
12214;SDS011;6170;42.206;24.142;2023-05-07T08:05:35;6.43;;;5.15;;
12214;SDS011;6170;42.206;24.142;2023-05-07T08:08:03;8.30;;;5.45;;
12214;SDS011;6170;42.206;24.142;2023-05-07T08:10:31;5.97;;;5.35;;
12214;SDS011;6170;42.206;24.142;2023-05-07T08:13:00;25.85;;;13.85;;
12214;SDS011;6170;42.206;24.142;2023-05-07T08:15:28;15.07;;;9.65;;
12214;SDS011;6170;42.206;24.142;2023-05-07T08:17:55;15.65;;;8.23;;
12214;SDS011;6170;42.206;24.142;2023-05-07T08:20:22;20.55;;;11.82;;
12214;SDS011;6170;42.206;24.142;2023-05-07T08:22:49;30.75;;;16.60;;
12214;SDS011;6170;42.206;24.142;2023-05-07T08:25:17;7.57;;;5.38;;
12214;SDS011;6170;42.206;24.142;2023-05-07T08:27:44;9.55;;;5.00;;
12214;SDS011;6170;42.206;24.142;2023-05-07T08:30:12;5.97;;;5.13;;
12214;SDS011;6170;42.206;24.142;2023-05-07T08:32:41;9.48;;;5.63;;
12214;SDS011;6170;42.206;24.142;2023-05-07T08:35:08;8.95;;;5.60;;
12214;SDS011;6170;42.206;24.142;2023-05-07T08:37:35;10.60;;;7.38;;
12214;SDS011;6170;42.206;24.142;2023-05-07T08:40:02;9.38;;;6.07;;
12214;SDS011;6170;42.206;24.142;2023-05-07T08:42:31;9.40;;;6.65;;
12214;SDS011;6170;42.206;24.142;2023-05-07T08:45:02;6.90;;;5.72;;
12214;SDS011;6170;42.206;24.142;2023-05-07T08:47:33;32.10;;;18.92;;
12214;SDS011;6170;42.206;24.142;2023-05-07T08:50:07;9.40;;;6.13;;
12214;SDS011;6170;42.206;24.142;2023-05-07T08:52:34;7.88;;;4.70;;
12214;SDS011;6170;42.206;24.142;2023-05-07T08:55:02;7.18;;;4.80;;
12214;SDS011;6170;42.206;24.142;2023-05-07T08:57:29;9.45;;;4.88;;
12214;SDS011;6170;42.206;24.142;2023-05-07T08:59:56;5.55;;;5.03;;
12214;SDS011;6170;42.206;24.142;2023-05-07T09:02:23;8.98;;;5.13;;
12214;SDS011;6170;42.206;24.142;2023-05-07T09:04:50;9.38;;;5.18;;
12214;SDS011;6170;42.206;24.142;2023-05-07T09:07:20;7.30;;;4.95;;
12214;SDS011;6170;42.206;24.142;2023-05-07T09:09:47;7.13;;;4.90;;
12214;SDS011;6170;42.206;24.142;2023-05-07T09:12:14;6.15;;;5.00;;
12214;SDS011;6170;42.206;24.142;2023-05-07T09:14:41;9.30;;;4.85;;
12214;SDS011;6170;42.206;24.142;2023-05-07T09:17:08;8.05;;;4.63;;
12214;SDS011;6170;42.206;24.142;2023-05-07T09:19:35;10.10;;;4.90;;
12214;SDS011;6170;42.206;24.142;2023-05-07T09:22:03;7.15;;;5.10;;
12214;SDS011;6170;42.206;24.142;2023-05-07T09:24:33;5.50;;;3.83;;
12214;SDS011;6170;42.206;24.142;2023-05-07T09:27:02;7.53;;;4.95;;
12214;SDS011;6170;42.206;24.142;2023-05-07T09:29:30;7.28;;;5.13;;
12214;SDS011;6170;42.206;24.142;2023-05-07T09:32:00;7.95;;;5.78;;
12214;SDS011;6170;42.206;24.142;2023-05-07T09:34:28;11.85;;;5.95;;
12214;SDS011;6170;42.206;24.142;2023-05-07T09:36:55;9.07;;;5.38;;
12214;SDS011;6170;42.206;24.142;2023-05-07T09:39:23;7.07;;;5.05;;
12214;SDS011;6170;42.206;24.142;2023-05-07T09:41:51;10.38;;;6.43;;
12214;SDS011;6170;42.206;24.142;2023-05-07T09:44:20;11.57;;;7.85;;
12214;SDS011;6170;42.206;24.142;2023-05-07T09:46:49;6.97;;;4.90;;
12214;SDS011;6170;42.206;24.142;2023-05-07T09:49:21;6.65;;;4.30;;
12214;SDS011;6170;42.206;24.142;2023-05-07T09:51:50;6.60;;;4.13;;
12214;SDS011;6170;42.206;24.142;2023-05-07T09:54:18;8.13;;;4.43;;
12214;SDS011;6170;42.206;24.142;2023-05-07T09:56:45;5.60;;;4.28;;
12214;SDS011;6170;42.206;24.142;2023-05-07T09:59:16;11.07;;;4.50;;
12214;SDS011;6170;42.206;24.142;2023-05-07T10:01:43;7.50;;;4.13;;
12214;SDS011;6170;42.206;24.142;2023-05-07T10:04:11;5.72;;;4.05;;
12214;SDS011;6170;42.206;24.142;2023-05-07T10:06:39;4.13;;;3.67;;
12214;SDS011;6170;42.206;24.142;2023-05-07T10:09:06;7.50;;;4.00;;
12214;SDS011;6170;42.206;24.142;2023-05-07T10:11:34;4.25;;;3.65;;
12214;SDS011;6170;42.206;24.142;2023-05-07T10:14:01;4.93;;;3.75;;
12214;SDS011;6170;42.206;24.142;2023-05-07T10:16:32;10.98;;;4.78;;
12214;SDS011;6170;42.206;24.142;2023-05-07T10:19:02;5.28;;;3.72;;
12214;SDS011;6170;42.206;24.142;2023-05-07T10:21:29;3.85;;;3.50;;
12214;SDS011;6170;42.206;24.142;2023-05-07T10:23:58;6.68;;;3.90;;
12214;SDS011;6170;42.206;24.142;2023-05-07T10:26:31;9.65;;;3.50;;
12214;SDS011;6170;42.206;24.142;2023-05-07T10:28:59;8.38;;;3.90;;
12214;SDS011;6170;42.206;24.142;2023-05-07T10:31:44;5.03;;;3.30;;
12214;SDS011;6170;42.206;24.142;2023-05-07T10:34:24;3.83;;;3.30;;
12214;SDS011;6170;42.206;24.142;2023-05-07T10:36:54;8.70;;;3.47;;
12214;SDS011;6170;42.206;24.142;2023-05-07T10:39:22;5.95;;;3.60;;
12214;SDS011;6170;42.206;24.142;2023-05-07T10:41:50;3.63;;;3.08;;
12214;SDS011;6170;42.206;24.142;2023-05-07T10:44:26;8.40;;;3.60;;
12214;SDS011;6170;42.206;24.142;2023-05-07T10:47:08;3.97;;;3.40;;
12214;SDS011;6170;42.206;24.142;2023-05-07T10:49:36;4.63;;;3.30;;
12214;SDS011;6170;42.206;24.142;2023-05-07T10:52:25;6.22;;;3.55;;
12214;SDS011;6170;42.206;24.142;2023-05-07T10:57:47;4.95;;;3.63;;
12214;SDS011;6170;42.206;24.142;2023-05-07T11:03:09;12.15;;;3.70;;
12214;SDS011;6170;42.206;24.142;2023-05-07T11:05:37;5.53;;;3.67;;
12214;SDS011;6170;42.206;24.142;2023-05-07T11:08:06;6.07;;;3.45;;
12214;SDS011;6170;42.206;24.142;2023-05-07T11:10:49;3.85;;;3.30;;
12214;SDS011;6170;42.206;24.142;2023-05-07T11:13:17;3.92;;;3.25;;
12214;SDS011;6170;42.206;24.142;2023-05-07T11:15:46;7.57;;;3.33;;
12214;SDS011;6170;42.206;24.142;2023-05-07T11:18:15;5.32;;;3.42;;
12214;SDS011;6170;42.206;24.142;2023-05-07T11:20:56;6.63;;;3.38;;
12214;SDS011;6170;42.206;24.142;2023-05-07T11:29:16;12.80;;;3.50;;
12214;SDS011;6170;42.206;24.142;2023-05-07T11:31:48;6.50;;;3.50;;
12214;SDS011;6170;42.206;24.142;2023-05-07T11:34:20;5.10;;;3.95;;
12214;SDS011;6170;42.206;24.142;2023-05-07T11:36:48;4.70;;;3.88;;
12214;SDS011;6170;42.206;24.142;2023-05-07T11:39:28;8.60;;;4.15;;
12214;SDS011;6170;42.206;24.142;2023-05-07T11:41:58;4.07;;;3.40;;
12214;SDS011;6170;42.206;24.142;2023-05-07T11:44:25;6.47;;;3.35;;
12214;SDS011;6170;42.206;24.142;2023-05-07T11:47:05;7.95;;;3.80;;
12214;SDS011;6170;42.206;24.142;2023-05-07T11:49:32;10.57;;;4.35;;
12214;SDS011;6170;42.206;24.142;2023-05-07T11:52:00;5.55;;;3.67;;
12214;SDS011;6170;42.206;24.142;2023-05-07T11:54:34;6.90;;;3.40;;
12214;SDS011;6170;42.206;24.142;2023-05-07T11:57:03;8.52;;;3.80;;
12214;SDS011;6170;42.206;24.142;2023-05-07T11:59:37;4.90;;;3.83;;
12214;SDS011;6170;42.206;24.142;2023-05-07T12:02:05;5.72;;;3.50;;
12214;SDS011;6170;42.206;24.142;2023-05-07T12:04:32;5.35;;;3.72;;
12214;SDS011;6170;42.206;24.142;2023-05-07T12:06:59;6.43;;;3.40;;
12214;SDS011;6170;42.206;24.142;2023-05-07T12:09:26;5.95;;;3.53;;
12214;SDS011;6170;42.206;24.142;2023-05-07T12:11:53;6.60;;;3.60;;
12214;SDS011;6170;42.206;24.142;2023-05-07T12:14:26;4.18;;;3.65;;
12214;SDS011;6170;42.206;24.142;2023-05-07T12:16:54;3.53;;;3.08;;
12214;SDS011;6170;42.206;24.142;2023-05-07T12:19:21;6.53;;;3.63;;
12214;SDS011;6170;42.206;24.142;2023-05-07T12:21:49;5.88;;;3.70;;
12214;SDS011;6170;42.206;24.142;2023-05-07T12:24:16;4.88;;;3.80;;
12214;SDS011;6170;42.206;24.142;2023-05-07T12:26:43;5.85;;;3.33;;
12214;SDS011;6170;42.206;24.142;2023-05-07T12:29:10;4.93;;;3.40;;
12214;SDS011;6170;42.206;24.142;2023-05-07T12:31:41;4.22;;;3.30;;
12214;SDS011;6170;42.206;24.142;2023-05-07T12:34:08;12.10;;;3.50;;
12214;SDS011;6170;42.206;24.142;2023-05-07T12:36:37;8.02;;;3.65;;
12214;SDS011;6170;42.206;24.142;2023-05-07T12:39:04;11.00;;;4.05;;
12214;SDS011;6170;42.206;24.142;2023-05-07T12:41:35;3.92;;;3.03;;
12214;SDS011;6170;42.206;24.142;2023-05-07T12:44:03;4.28;;;3.30;;
12214;SDS011;6170;42.206;24.142;2023-05-07T12:46:31;6.07;;;3.95;;
12214;SDS011;6170;42.206;24.142;2023-05-07T12:48:59;6.70;;;3.40;;
12214;SDS011;6170;42.206;24.142;2023-05-07T12:51:27;6.18;;;3.45;;
12214;SDS011;6170;42.206;24.142;2023-05-07T12:53:56;7.28;;;3.70;;
12214;SDS011;6170;42.206;24.142;2023-05-07T12:56:23;4.15;;;3.22;;
12214;SDS011;6170;42.206;24.142;2023-05-07T12:58:50;4.97;;;3.05;;
12214;SDS011;6170;42.206;24.142;2023-05-07T13:01:17;4.43;;;3.45;;
12214;SDS011;6170;42.206;24.142;2023-05-07T13:03:47;5.30;;;3.03;;
12214;SDS011;6170;42.206;24.142;2023-05-07T13:06:16;4.55;;;3.50;;
12214;SDS011;6170;42.206;24.142;2023-05-07T13:08:43;8.05;;;3.60;;
12214;SDS011;6170;42.206;24.142;2023-05-07T13:11:10;3.92;;;3.33;;
12214;SDS011;6170;42.206;24.142;2023-05-07T13:13:39;6.47;;;3.45;;
12214;SDS011;6170;42.206;24.142;2023-05-07T13:16:08;6.35;;;3.58;;
12214;SDS011;6170;42.206;24.142;2023-05-07T13:18:37;7.35;;;3.72;;
12214;SDS011;6170;42.206;24.142;2023-05-07T13:21:05;3.83;;;3.53;;
12214;SDS011;6170;42.206;24.142;2023-05-07T13:23:33;8.88;;;3.47;;
12214;SDS011;6170;42.206;24.142;2023-05-07T13:26:00;5.38;;;3.30;;
12214;SDS011;6170;42.206;24.142;2023-05-07T13:28:27;3.80;;;3.00;;
12214;SDS011;6170;42.206;24.142;2023-05-07T13:30:54;6.13;;;3.38;;
12214;SDS011;6170;42.206;24.142;2023-05-07T13:33:21;7.10;;;3.60;;
12214;SDS011;6170;42.206;24.142;2023-05-07T13:35:49;7.35;;;3.63;;
12214;SDS011;6170;42.206;24.142;2023-05-07T13:38:16;3.75;;;3.13;;
12214;SDS011;6170;42.206;24.142;2023-05-07T13:40:44;9.57;;;3.42;;
12214;SDS011;6170;42.206;24.142;2023-05-07T13:43:11;6.78;;;3.42;;
12214;SDS011;6170;42.206;24.142;2023-05-07T13:45:39;7.95;;;3.60;;
12214;SDS011;6170;42.206;24.142;2023-05-07T13:48:06;6.82;;;3.50;;
12214;SDS011;6170;42.206;24.142;2023-05-07T13:50:34;3.95;;;3.03;;
12214;SDS011;6170;42.206;24.142;2023-05-07T13:53:01;5.40;;;4.03;;
12214;SDS011;6170;42.206;24.142;2023-05-07T13:55:28;4.50;;;3.38;;
12214;SDS011;6170;42.206;24.142;2023-05-07T13:57:57;7.30;;;3.78;;
12214;SDS011;6170;42.206;24.142;2023-05-07T14:00:26;4.57;;;3.40;;
12214;SDS011;6170;42.206;24.142;2023-05-07T14:02:54;8.32;;;3.47;;
12214;SDS011;6170;42.206;24.142;2023-05-07T14:05:21;4.90;;;3.53;;
12214;SDS011;6170;42.206;24.142;2023-05-07T14:07:49;6.22;;;3.45;;
12214;SDS011;6170;42.206;24.142;2023-05-07T14:10:17;6.07;;;3.95;;
12214;SDS011;6170;42.206;24.142;2023-05-07T14:12:44;4.35;;;3.60;;
12214;SDS011;6170;42.206;24.142;2023-05-07T14:15:13;4.97;;;3.58;;
12214;SDS011;6170;42.206;24.142;2023-05-07T14:17:41;4.20;;;3.17;;
12214;SDS011;6170;42.206;24.142;2023-05-07T14:20:08;5.40;;;3.40;;
12214;SDS011;6170;42.206;24.142;2023-05-07T14:22:36;8.32;;;3.63;;
12214;SDS011;6170;42.206;24.142;2023-05-07T14:25:04;5.32;;;3.60;;
12214;SDS011;6170;42.206;24.142;2023-05-07T14:27:31;6.53;;;3.72;;
12214;SDS011;6170;42.206;24.142;2023-05-07T14:29:59;5.68;;;3.38;;
12214;SDS011;6170;42.206;24.142;2023-05-07T14:32:27;5.28;;;4.03;;
12214;SDS011;6170;42.206;24.142;2023-05-07T14:34:54;8.13;;;3.38;;
12214;SDS011;6170;42.206;24.142;2023-05-07T14:37:21;5.32;;;3.63;;
12214;SDS011;6170;42.206;24.142;2023-05-07T14:39:49;4.07;;;3.65;;
12214;SDS011;6170;42.206;24.142;2023-05-07T14:42:16;4.95;;;3.55;;
12214;SDS011;6170;42.206;24.142;2023-05-07T14:44:44;5.00;;;3.05;;
12214;SDS011;6170;42.206;24.142;2023-05-07T14:47:11;7.72;;;3.75;;
12214;SDS011;6170;42.206;24.142;2023-05-07T14:49:40;7.43;;;3.58;;
12214;SDS011;6170;42.206;24.142;2023-05-07T14:52:07;7.15;;;4.20;;
12214;SDS011;6170;42.206;24.142;2023-05-07T14:54:37;6.68;;;3.47;;
12214;SDS011;6170;42.206;24.142;2023-05-07T14:57:05;5.13;;;3.85;;